sensor_id;sensor_type;location;lat;lon;timestamp;temperature;humidity
10123;DHT22;5101;49.038;8.710;2023-04-03T00:01:10;6.20;85.40
10123;DHT22;5101;49.038;8.710;2023-04-03T00:03:35;6.20;85.40
10123;DHT22;5101;49.038;8.710;2023-04-03T00:06:02;6.30;85.40
10123;DHT22;5101;49.038;8.710;2023-04-03T00:08:27;6.50;85.40
10123;DHT22;5101;49.038;8.710;2023-04-03T00:10:55;6.20;85.10
10123;DHT22;5101;49.038;8.710;2023-04-03T00:13:21;6.30;85.10
10123;DHT22;5101;49.038;8.710;2023-04-03T00:15:46;6.20;85.00
10123;DHT22;5101;49.038;8.710;2023-04-03T00:18:12;6.20;84.70
10123;DHT22;5101;49.038;8.710;2023-04-03T00:20:37;6.20;84.50
10123;DHT22;5101;49.038;8.710;2023-04-03T00:23:03;6.20;84.40
10123;DHT22;5101;49.038;8.710;2023-04-03T00:25:28;6.10;84.30
10123;DHT22;5101;49.038;8.710;2023-04-03T00:27:54;6.20;84.30
10123;DHT22;5101;49.038;8.710;2023-04-03T00:30:21;6.10;85.00
10123;DHT22;5101;49.038;8.710;2023-04-03T00:32:48;6.00;84.30
10123;DHT22;5101;49.038;8.710;2023-04-03T00:35:14;6.00;84.20
10123;DHT22;5101;49.038;8.710;2023-04-03T00:37:41;6.00;84.10
10123;DHT22;5101;49.038;8.710;2023-04-03T00:40:08;6.10;84.20
10123;DHT22;5101;49.038;8.710;2023-04-03T00:42:36;6.10;84.10
10123;DHT22;5101;49.038;8.710;2023-04-03T00:47:28;6.10;84.00
10123;DHT22;5101;49.038;8.710;2023-04-03T00:49:54;6.10;84.00
10123;DHT22;5101;49.038;8.710;2023-04-03T00:52:25;6.00;83.90
10123;DHT22;5101;49.038;8.710;2023-04-03T00:54:54;6.10;84.00
10123;DHT22;5101;49.038;8.710;2023-04-03T00:57:22;6.10;84.40
10123;DHT22;5101;49.038;8.710;2023-04-03T00:59:55;6.10;83.80
10123;DHT22;5101;49.038;8.710;2023-04-03T01:02:22;6.10;83.90
10123;DHT22;5101;49.038;8.710;2023-04-03T01:04:47;6.40;84.20
10123;DHT22;5101;49.038;8.710;2023-04-03T01:07:17;6.10;83.90
10123;DHT22;5101;49.038;8.710;2023-04-03T01:09:44;6.00;83.70
10123;DHT22;5101;49.038;8.710;2023-04-03T01:14:44;5.90;84.30
10123;DHT22;5101;49.038;8.710;2023-04-03T01:17:34;5.90;83.70
10123;DHT22;5101;49.038;8.710;2023-04-03T01:20:43;5.80;83.70
10123;DHT22;5101;49.038;8.710;2023-04-03T01:23:20;5.70;83.70
10123;DHT22;5101;49.038;8.710;2023-04-03T01:25:50;5.70;83.70
10123;DHT22;5101;49.038;8.710;2023-04-03T01:33:33;5.60;83.90
10123;DHT22;5101;49.038;8.710;2023-04-03T01:35:59;5.50;83.80
10123;DHT22;5101;49.038;8.710;2023-04-03T01:38:24;5.80;84.30
10123;DHT22;5101;49.038;8.710;2023-04-03T01:40:50;5.50;84.10
10123;DHT22;5101;49.038;8.710;2023-04-03T01:43:16;5.70;84.30
10123;DHT22;5101;49.038;8.710;2023-04-03T01:45:41;5.50;84.10
10123;DHT22;5101;49.038;8.710;2023-04-03T01:48:07;5.50;84.10
10123;DHT22;5101;49.038;8.710;2023-04-03T01:50:33;5.50;84.20
10123;DHT22;5101;49.038;8.710;2023-04-03T01:52:58;5.40;84.20
10123;DHT22;5101;49.038;8.710;2023-04-03T01:55:24;5.40;84.40
10123;DHT22;5101;49.038;8.710;2023-04-03T01:57:49;5.40;84.60
10123;DHT22;5101;49.038;8.710;2023-04-03T02:00:15;5.50;85.40
10123;DHT22;5101;49.038;8.710;2023-04-03T02:02:40;5.50;84.90
10123;DHT22;5101;49.038;8.710;2023-04-03T02:05:06;5.50;84.90
10123;DHT22;5101;49.038;8.710;2023-04-03T02:07:32;5.60;85.20
10123;DHT22;5101;49.038;8.710;2023-04-03T02:09:57;5.70;85.70
10123;DHT22;5101;49.038;8.710;2023-04-03T02:12:23;5.70;85.80
10123;DHT22;5101;49.038;8.710;2023-04-03T02:14:48;5.70;85.90
10123;DHT22;5101;49.038;8.710;2023-04-03T02:17:14;5.60;85.90
10123;DHT22;5101;49.038;8.710;2023-04-03T02:19:40;5.50;85.80
10123;DHT22;5101;49.038;8.710;2023-04-03T02:22:05;5.60;85.70
10123;DHT22;5101;49.038;8.710;2023-04-03T02:24:31;5.50;85.70
10123;DHT22;5101;49.038;8.710;2023-04-03T02:26:57;5.50;85.60
10123;DHT22;5101;49.038;8.710;2023-04-03T02:29:22;5.50;85.70
10123;DHT22;5101;49.038;8.710;2023-04-03T02:31:49;5.40;85.70
10123;DHT22;5101;49.038;8.710;2023-04-03T02:34:14;5.40;85.60
10123;DHT22;5101;49.038;8.710;2023-04-03T02:36:40;5.40;85.60
10123;DHT22;5101;49.038;8.710;2023-04-03T02:39:06;5.30;85.50
10123;DHT22;5101;49.038;8.710;2023-04-03T02:41:31;5.30;85.70
10123;DHT22;5101;49.038;8.710;2023-04-03T02:44:02;5.30;85.70
10123;DHT22;5101;49.038;8.710;2023-04-03T02:46:27;5.20;85.80
10123;DHT22;5101;49.038;8.710;2023-04-03T02:48:54;5.10;85.80
10123;DHT22;5101;49.038;8.710;2023-04-03T02:51:20;5.00;86.00
10123;DHT22;5101;49.038;8.710;2023-04-03T02:53:45;5.00;86.20
10123;DHT22;5101;49.038;8.710;2023-04-03T02:56:11;5.00;86.30
10123;DHT22;5101;49.038;8.710;2023-04-03T02:58:36;4.90;86.50
10123;DHT22;5101;49.038;8.710;2023-04-03T03:01:03;5.40;87.00
10123;DHT22;5101;49.038;8.710;2023-04-03T03:03:28;5.10;86.90
10123;DHT22;5101;49.038;8.710;2023-04-03T03:06:07;5.10;87.00
10123;DHT22;5101;49.038;8.710;2023-04-03T03:08:34;5.10;87.20
10123;DHT22;5101;49.038;8.710;2023-04-03T03:11:00;5.10;87.10
10123;DHT22;5101;49.038;8.710;2023-04-03T03:13:25;5.20;87.30
10123;DHT22;5101;49.038;8.710;2023-04-03T03:15:51;5.10;87.50
10123;DHT22;5101;49.038;8.710;2023-04-03T03:18:17;5.00;87.60
10123;DHT22;5101;49.038;8.710;2023-04-03T03:20:42;5.00;87.80
10123;DHT22;5101;49.038;8.710;2023-04-03T03:23:08;4.90;87.70
10123;DHT22;5101;49.038;8.710;2023-04-03T03:25:38;4.80;87.80
10123;DHT22;5101;49.038;8.710;2023-04-03T03:28:04;4.80;88.20
10123;DHT22;5101;49.038;8.710;2023-04-03T03:30:30;4.60;88.30
10123;DHT22;5101;49.038;8.710;2023-04-03T03:32:55;4.60;88.70
10123;DHT22;5101;49.038;8.710;2023-04-03T03:35:21;5.00;89.20
10123;DHT22;5101;49.038;8.710;2023-04-03T03:37:46;4.60;89.00
10123;DHT22;5101;49.038;8.710;2023-04-03T03:40:12;4.60;89.30
10123;DHT22;5101;49.038;8.710;2023-04-03T03:42:38;4.60;89.50
10123;DHT22;5101;49.038;8.710;2023-04-03T03:45:04;4.60;89.70
10123;DHT22;5101;49.038;8.710;2023-04-03T03:47:30;4.50;90.20
10123;DHT22;5101;49.038;8.710;2023-04-03T03:49:55;4.60;90.10
10123;DHT22;5101;49.038;8.710;2023-04-03T03:52:21;4.60;90.20
10123;DHT22;5101;49.038;8.710;2023-04-03T03:54:46;4.60;90.20
10123;DHT22;5101;49.038;8.710;2023-04-03T03:57:12;4.60;90.20
10123;DHT22;5101;49.038;8.710;2023-04-03T03:59:37;4.80;90.40
10123;DHT22;5101;49.038;8.710;2023-04-03T04:02:03;4.70;90.40
10123;DHT22;5101;49.038;8.710;2023-04-03T04:04:29;4.70;90.40
10123;DHT22;5101;49.038;8.710;2023-04-03T04:06:55;4.70;90.40
10123;DHT22;5101;49.038;8.710;2023-04-03T04:09:20;4.70;90.50
10123;DHT22;5101;49.038;8.710;2023-04-03T04:11:46;4.70;90.50
10123;DHT22;5101;49.038;8.710;2023-04-03T04:14:12;4.80;90.50
10123;DHT22;5101;49.038;8.710;2023-04-03T04:16:38;4.80;90.50
10123;DHT22;5101;49.038;8.710;2023-04-03T04:19:04;4.80;90.60
10123;DHT22;5101;49.038;8.710;2023-04-03T04:21:30;4.80;90.60
10123;DHT22;5101;49.038;8.710;2023-04-03T04:23:55;4.70;90.60
10123;DHT22;5101;49.038;8.710;2023-04-03T04:26:21;4.90;90.70
10123;DHT22;5101;49.038;8.710;2023-04-03T04:28:46;4.80;90.80
10123;DHT22;5101;49.038;8.710;2023-04-03T04:31:12;4.70;90.70
10123;DHT22;5101;49.038;8.710;2023-04-03T04:33:37;4.70;90.70
10123;DHT22;5101;49.038;8.710;2023-04-03T04:36:03;5.10;90.80
10123;DHT22;5101;49.038;8.710;2023-04-03T04:38:28;4.70;90.60
10123;DHT22;5101;49.038;8.710;2023-04-03T04:40:54;4.80;90.70
10123;DHT22;5101;49.038;8.710;2023-04-03T04:43:20;4.80;90.70
10123;DHT22;5101;49.038;8.710;2023-04-03T04:45:45;4.80;90.70
10123;DHT22;5101;49.038;8.710;2023-04-03T04:48:11;4.70;90.60
10123;DHT22;5101;49.038;8.710;2023-04-03T04:50:37;4.70;90.60
10123;DHT22;5101;49.038;8.710;2023-04-03T04:53:02;4.60;90.60
10123;DHT22;5101;49.038;8.710;2023-04-03T04:55:29;4.60;90.50
10123;DHT22;5101;49.038;8.710;2023-04-03T04:57:55;4.50;90.50
10123;DHT22;5101;49.038;8.710;2023-04-03T05:00:21;4.40;90.50
10123;DHT22;5101;49.038;8.710;2023-04-03T05:02:46;4.50;90.50
10123;DHT22;5101;49.038;8.710;2023-04-03T05:05:12;4.50;90.50
10123;DHT22;5101;49.038;8.710;2023-04-03T05:07:37;4.40;90.50
10123;DHT22;5101;49.038;8.710;2023-04-03T05:10:03;4.30;90.50
10123;DHT22;5101;49.038;8.710;2023-04-03T05:12:29;4.30;90.50
10123;DHT22;5101;49.038;8.710;2023-04-03T05:14:54;4.20;90.40
10123;DHT22;5101;49.038;8.710;2023-04-03T05:17:20;4.10;90.40
10123;DHT22;5101;49.038;8.710;2023-04-03T05:19:46;4.10;90.40
10123;DHT22;5101;49.038;8.710;2023-04-03T05:22:11;4.00;90.40
10123;DHT22;5101;49.038;8.710;2023-04-03T05:24:37;3.90;90.50
10123;DHT22;5101;49.038;8.710;2023-04-03T05:27:03;3.90;90.50
10123;DHT22;5101;49.038;8.710;2023-04-03T05:29:28;3.90;90.50
10123;DHT22;5101;49.038;8.710;2023-04-03T05:31:54;3.90;90.60
10123;DHT22;5101;49.038;8.710;2023-04-03T05:34:20;3.80;90.60
10123;DHT22;5101;49.038;8.710;2023-04-03T05:36:46;3.80;90.70
10123;DHT22;5101;49.038;8.710;2023-04-03T05:39:11;3.90;90.70
10123;DHT22;5101;49.038;8.710;2023-04-03T05:41:37;3.90;90.70
10123;DHT22;5101;49.038;8.710;2023-04-03T05:44:02;3.80;90.70
10123;DHT22;5101;49.038;8.710;2023-04-03T05:46:28;3.90;90.80
10123;DHT22;5101;49.038;8.710;2023-04-03T05:48:53;3.90;90.80
10123;DHT22;5101;49.038;8.710;2023-04-03T05:51:22;3.90;90.80
10123;DHT22;5101;49.038;8.710;2023-04-03T05:53:58;3.90;90.80
10123;DHT22;5101;49.038;8.710;2023-04-03T05:56:24;4.30;90.90
10123;DHT22;5101;49.038;8.710;2023-04-03T05:58:50;4.10;90.70
10123;DHT22;5101;49.038;8.710;2023-04-03T06:01:16;4.10;90.60
10123;DHT22;5101;49.038;8.710;2023-04-03T06:03:42;4.10;90.60
10123;DHT22;5101;49.038;8.710;2023-04-03T06:06:07;4.20;90.60
10123;DHT22;5101;49.038;8.710;2023-04-03T06:08:33;4.20;90.60
10123;DHT22;5101;49.038;8.710;2023-04-03T06:11:00;4.20;90.60
10123;DHT22;5101;49.038;8.710;2023-04-03T06:13:27;4.20;90.60
10123;DHT22;5101;49.038;8.710;2023-04-03T06:15:52;4.20;90.60
10123;DHT22;5101;49.038;8.710;2023-04-03T06:18:18;4.30;90.70
10123;DHT22;5101;49.038;8.710;2023-04-03T06:20:43;4.30;90.70
10123;DHT22;5101;49.038;8.710;2023-04-03T06:23:09;4.40;90.70
10123;DHT22;5101;49.038;8.710;2023-04-03T06:25:35;4.30;90.60
10123;DHT22;5101;49.038;8.710;2023-04-03T06:28:01;4.40;90.70
10123;DHT22;5101;49.038;8.710;2023-04-03T06:30:27;4.40;90.70
10123;DHT22;5101;49.038;8.710;2023-04-03T06:32:52;4.50;90.70
10123;DHT22;5101;49.038;8.710;2023-04-03T06:35:18;4.50;90.70
10123;DHT22;5101;49.038;8.710;2023-04-03T06:37:43;4.50;90.70
10123;DHT22;5101;49.038;8.710;2023-04-03T06:40:16;4.60;90.80
10123;DHT22;5101;49.038;8.710;2023-04-03T06:42:43;4.90;90.90
10123;DHT22;5101;49.038;8.710;2023-04-03T06:45:09;4.60;90.70
10123;DHT22;5101;49.038;8.710;2023-04-03T06:47:36;4.60;90.80
10123;DHT22;5101;49.038;8.710;2023-04-03T06:50:02;4.80;90.90
10123;DHT22;5101;49.038;8.710;2023-04-03T06:52:27;4.80;90.80
10123;DHT22;5101;49.038;8.710;2023-04-03T06:54:53;4.90;90.80
10123;DHT22;5101;49.038;8.710;2023-04-03T06:57:22;4.90;90.80
10123;DHT22;5101;49.038;8.710;2023-04-03T06:59:48;5.00;90.80
10123;DHT22;5101;49.038;8.710;2023-04-03T07:02:13;5.20;90.80
10123;DHT22;5101;49.038;8.710;2023-04-03T07:04:38;5.30;90.90
10123;DHT22;5101;49.038;8.710;2023-04-03T07:07:04;5.20;90.90
10123;DHT22;5101;49.038;8.710;2023-04-03T07:09:29;5.20;90.90
10123;DHT22;5101;49.038;8.710;2023-04-03T07:11:55;5.20;90.90
10123;DHT22;5101;49.038;8.710;2023-04-03T07:14:21;5.30;90.80
10123;DHT22;5101;49.038;8.710;2023-04-03T07:16:46;5.50;90.90
10123;DHT22;5101;49.038;8.710;2023-04-03T07:19:12;6.00;91.00
10123;DHT22;5101;49.038;8.710;2023-04-03T07:21:37;6.00;90.90
10123;DHT22;5101;49.038;8.710;2023-04-03T07:24:03;5.60;90.60
10123;DHT22;5101;49.038;8.710;2023-04-03T07:26:28;5.70;90.60
10123;DHT22;5101;49.038;8.710;2023-04-03T07:28:54;6.00;90.50
10123;DHT22;5101;49.038;8.710;2023-04-03T07:31:19;6.30;90.30
10123;DHT22;5101;49.038;8.710;2023-04-03T07:33:45;6.80;90.10
10123;DHT22;5101;49.038;8.710;2023-04-03T07:36:16;6.70;89.30
10123;DHT22;5101;49.038;8.710;2023-04-03T07:38:42;6.90;89.00
10123;DHT22;5101;49.038;8.710;2023-04-03T07:41:12;6.90;87.90
10123;DHT22;5101;49.038;8.710;2023-04-03T07:43:39;6.90;87.10
10123;DHT22;5101;49.038;8.710;2023-04-03T07:46:05;7.10;86.60
10123;DHT22;5101;49.038;8.710;2023-04-03T07:48:30;7.00;84.40
10123;DHT22;5101;49.038;8.710;2023-04-03T07:51:00;7.10;84.50
10123;DHT22;5101;49.038;8.710;2023-04-03T07:53:26;7.40;83.50
10123;DHT22;5101;49.038;8.710;2023-04-03T07:55:51;7.40;82.00
10123;DHT22;5101;49.038;8.710;2023-04-03T07:58:20;7.90;82.10
10123;DHT22;5101;49.038;8.710;2023-04-03T08:00:46;8.30;81.30
10123;DHT22;5101;49.038;8.710;2023-04-03T08:03:13;8.80;79.80
10123;DHT22;5101;49.038;8.710;2023-04-03T08:05:41;9.30;79.00
10123;DHT22;5101;49.038;8.710;2023-04-03T08:08:07;9.40;75.90
10123;DHT22;5101;49.038;8.710;2023-04-03T08:10:33;9.80;75.70
10123;DHT22;5101;49.038;8.710;2023-04-03T08:12:59;10.20;72.00
10123;DHT22;5101;49.038;8.710;2023-04-03T08:15:25;10.30;71.50
10123;DHT22;5101;49.038;8.710;2023-04-03T08:17:52;10.60;70.00
10123;DHT22;5101;49.038;8.710;2023-04-03T08:20:17;10.90;69.00
10123;DHT22;5101;49.038;8.710;2023-04-03T08:22:43;11.10;66.70
10123;DHT22;5101;49.038;8.710;2023-04-03T08:25:09;11.20;66.40
10123;DHT22;5101;49.038;8.710;2023-04-03T08:27:34;11.40;64.70
10123;DHT22;5101;49.038;8.710;2023-04-03T08:30:00;11.40;64.50
10123;DHT22;5101;49.038;8.710;2023-04-03T08:32:26;11.70;63.50
10123;DHT22;5101;49.038;8.710;2023-04-03T08:34:52;11.80;62.20
10123;DHT22;5101;49.038;8.710;2023-04-03T08:37:18;12.30;61.40
10123;DHT22;5101;49.038;8.710;2023-04-03T08:39:44;12.60;59.30
10123;DHT22;5101;49.038;8.710;2023-04-03T08:42:48;12.10;57.80
10123;DHT22;5101;49.038;8.710;2023-04-03T08:48:19;12.60;56.20
10123;DHT22;5101;49.038;8.710;2023-04-03T08:50:48;12.90;55.20
10123;DHT22;5101;49.038;8.710;2023-04-03T08:53:20;13.50;52.40
10123;DHT22;5101;49.038;8.710;2023-04-03T08:55:51;13.00;51.20
10123;DHT22;5101;49.038;8.710;2023-04-03T08:58:21;13.20;50.50
10123;DHT22;5101;49.038;8.710;2023-04-03T09:01:02;12.70;50.00
10123;DHT22;5101;49.038;8.710;2023-04-03T09:03:31;12.40;49.10
10123;DHT22;5101;49.038;8.710;2023-04-03T09:06:02;12.30;50.10
10123;DHT22;5101;49.038;8.710;2023-04-03T09:08:32;12.60;50.60
10123;DHT22;5101;49.038;8.710;2023-04-03T09:11:13;12.60;50.00
10123;DHT22;5101;49.038;8.710;2023-04-03T09:13:49;12.50;49.40
10123;DHT22;5101;49.038;8.710;2023-04-03T09:16:39;12.80;49.90
10123;DHT22;5101;49.038;8.710;2023-04-03T09:21:49;13.20;46.90
10123;DHT22;5101;49.038;8.710;2023-04-03T09:24:16;12.80;43.80
10123;DHT22;5101;49.038;8.710;2023-04-03T09:26:52;12.70;44.80
10123;DHT22;5101;49.038;8.710;2023-04-03T09:29:22;12.80;44.70
10123;DHT22;5101;49.038;8.710;2023-04-03T09:31:49;12.60;44.10
10123;DHT22;5101;49.038;8.710;2023-04-03T09:34:26;12.50;44.80
10123;DHT22;5101;49.038;8.710;2023-04-03T09:36:56;12.30;44.60
10123;DHT22;5101;49.038;8.710;2023-04-03T09:39:25;11.80;43.70
10123;DHT22;5101;49.038;8.710;2023-04-03T09:42:04;11.20;45.10
10123;DHT22;5101;49.038;8.710;2023-04-03T09:44:35;10.90;46.40
10123;DHT22;5101;49.038;8.710;2023-04-03T09:47:18;10.90;47.10
10123;DHT22;5101;49.038;8.710;2023-04-03T09:49:44;10.90;47.20
10123;DHT22;5101;49.038;8.710;2023-04-03T09:52:25;10.60;48.20
10123;DHT22;5101;49.038;8.710;2023-04-03T09:54:50;10.50;48.60
10123;DHT22;5101;49.038;8.710;2023-04-03T09:57:16;10.10;49.00
10123;DHT22;5101;49.038;8.710;2023-04-03T09:59:59;10.10;50.30
10123;DHT22;5101;49.038;8.710;2023-04-03T10:02:39;10.20;51.20
10123;DHT22;5101;49.038;8.710;2023-04-03T10:05:26;10.20;51.70
10123;DHT22;5101;49.038;8.710;2023-04-03T10:10:39;10.60;51.00
10123;DHT22;5101;49.038;8.710;2023-04-03T10:15:36;10.60;49.60
10123;DHT22;5101;49.038;8.710;2023-04-03T10:21:08;10.50;46.80
10123;DHT22;5101;49.038;8.710;2023-04-03T10:23:55;10.30;46.00
10123;DHT22;5101;49.038;8.710;2023-04-03T10:26:57;10.20;46.60
10123;DHT22;5101;49.038;8.710;2023-04-03T10:35:44;10.30;46.60
10123;DHT22;5101;49.038;8.710;2023-04-03T10:38:48;10.00;45.60
10123;DHT22;5101;49.038;8.710;2023-04-03T10:44:23;10.10;47.10
10123;DHT22;5101;49.038;8.710;2023-04-03T10:46:58;10.10;47.20
10123;DHT22;5101;49.038;8.710;2023-04-03T10:52:17;9.90;49.20
10123;DHT22;5101;49.038;8.710;2023-04-03T10:55:05;9.70;49.00
10123;DHT22;5101;49.038;8.710;2023-04-03T10:57:32;9.30;49.90
10123;DHT22;5101;49.038;8.710;2023-04-03T11:00:04;9.30;49.70
10123;DHT22;5101;49.038;8.710;2023-04-03T11:02:30;9.20;50.30
10123;DHT22;5101;49.038;8.710;2023-04-03T11:05:02;9.20;51.50
10123;DHT22;5101;49.038;8.710;2023-04-03T11:07:37;9.20;51.20
10123;DHT22;5101;49.038;8.710;2023-04-03T11:10:23;9.00;50.50
10123;DHT22;5101;49.038;8.710;2023-04-03T11:12:59;8.90;49.60
10123;DHT22;5101;49.038;8.710;2023-04-03T11:15:29;9.00;49.80
10123;DHT22;5101;49.038;8.710;2023-04-03T11:18:17;8.90;49.40
10123;DHT22;5101;49.038;8.710;2023-04-03T11:20:53;8.80;48.90
10123;DHT22;5101;49.038;8.710;2023-04-03T11:23:25;8.80;48.90
10123;DHT22;5101;49.038;8.710;2023-04-03T11:25:53;8.70;49.40
10123;DHT22;5101;49.038;8.710;2023-04-03T11:28:20;8.70;49.60
10123;DHT22;5101;49.038;8.710;2023-04-03T11:30:52;8.70;50.10
10123;DHT22;5101;49.038;8.710;2023-04-03T11:36:25;8.80;50.90
10123;DHT22;5101;49.038;8.710;2023-04-03T11:38:55;8.70;50.80
10123;DHT22;5101;49.038;8.710;2023-04-03T11:41:30;8.70;51.30
10123;DHT22;5101;49.038;8.710;2023-04-03T11:44:05;8.80;51.80
10123;DHT22;5101;49.038;8.710;2023-04-03T11:46:57;8.90;51.50
10123;DHT22;5101;49.038;8.710;2023-04-03T11:52:58;9.00;51.90
10123;DHT22;5101;49.038;8.710;2023-04-03T12:00:52;8.80;51.30
10123;DHT22;5101;49.038;8.710;2023-04-03T12:13:37;8.50;49.80
10123;DHT22;5101;49.038;8.710;2023-04-03T12:16:05;8.60;49.60
10123;DHT22;5101;49.038;8.710;2023-04-03T12:18:40;8.60;50.20
10123;DHT22;5101;49.038;8.710;2023-04-03T12:21:06;8.50;50.20
10123;DHT22;5101;49.038;8.710;2023-04-03T12:23:34;8.50;49.80
10123;DHT22;5101;49.038;8.710;2023-04-03T12:26:27;8.50;50.20
10123;DHT22;5101;49.038;8.710;2023-04-03T12:28:53;8.50;50.40
10123;DHT22;5101;49.038;8.710;2023-04-03T12:31:20;8.50;50.50
10123;DHT22;5101;49.038;8.710;2023-04-03T12:45:24;8.50;51.10
10123;DHT22;5101;49.038;8.710;2023-04-03T12:47:53;8.60;51.00
10123;DHT22;5101;49.038;8.710;2023-04-03T12:50:29;8.60;51.00
10123;DHT22;5101;49.038;8.710;2023-04-03T12:53:05;8.60;50.80
10123;DHT22;5101;49.038;8.710;2023-04-03T12:55:31;8.70;51.10
10123;DHT22;5101;49.038;8.710;2023-04-03T12:57:57;8.80;51.10
10123;DHT22;5101;49.038;8.710;2023-04-03T13:00:38;8.70;50.50
10123;DHT22;5101;49.038;8.710;2023-04-03T13:03:06;8.70;50.50
10123;DHT22;5101;49.038;8.710;2023-04-03T13:05:33;8.60;50.00
10123;DHT22;5101;49.038;8.710;2023-04-03T13:08:02;8.60;49.70
10123;DHT22;5101;49.038;8.710;2023-04-03T13:10:29;8.70;50.00
10123;DHT22;5101;49.038;8.710;2023-04-03T13:13:08;8.80;50.20
10123;DHT22;5101;49.038;8.710;2023-04-03T13:15:43;8.80;48.20
10123;DHT22;5101;49.038;8.710;2023-04-03T13:18:27;8.80;47.90
10123;DHT22;5101;49.038;8.710;2023-04-03T13:21:18;8.90;48.40
10123;DHT22;5101;49.038;8.710;2023-04-03T13:23:45;8.90;48.90
10123;DHT22;5101;49.038;8.710;2023-04-03T13:26:11;9.00;48.60
10123;DHT22;5101;49.038;8.710;2023-04-03T13:28:39;9.00;48.50
10123;DHT22;5101;49.038;8.710;2023-04-03T13:33:43;8.80;47.30
10123;DHT22;5101;49.038;8.710;2023-04-03T13:36:17;8.70;47.10
10123;DHT22;5101;49.038;8.710;2023-04-03T13:38:43;8.70;47.70
10123;DHT22;5101;49.038;8.710;2023-04-03T13:41:29;8.80;48.10
10123;DHT22;5101;49.038;8.710;2023-04-03T13:43:54;8.80;48.10
10123;DHT22;5101;49.038;8.710;2023-04-03T13:46:27;8.70;47.30
10123;DHT22;5101;49.038;8.710;2023-04-03T13:48:54;8.70;47.50
10123;DHT22;5101;49.038;8.710;2023-04-03T13:51:24;8.70;47.90
10123;DHT22;5101;49.038;8.710;2023-04-03T13:56:36;8.90;48.10
10123;DHT22;5101;49.038;8.710;2023-04-03T14:01:48;9.00;46.90
10123;DHT22;5101;49.038;8.710;2023-04-03T14:04:19;9.10;46.80
10123;DHT22;5101;49.038;8.710;2023-04-03T14:06:46;9.20;47.00
10123;DHT22;5101;49.038;8.710;2023-04-03T14:09:13;9.10;46.20
10123;DHT22;5101;49.038;8.710;2023-04-03T14:11:39;8.90;46.30
10123;DHT22;5101;49.038;8.710;2023-04-03T14:14:17;9.00;46.90
10123;DHT22;5101;49.038;8.710;2023-04-03T14:16:46;9.00;47.40
10123;DHT22;5101;49.038;8.710;2023-04-03T14:19:30;9.00;47.30
10123;DHT22;5101;49.038;8.710;2023-04-03T14:21:58;8.90;46.60
10123;DHT22;5101;49.038;8.710;2023-04-03T14:24:24;8.80;46.60
10123;DHT22;5101;49.038;8.710;2023-04-03T14:26:52;8.90;46.70
10123;DHT22;5101;49.038;8.710;2023-04-03T14:29:18;8.90;46.30
10123;DHT22;5101;49.038;8.710;2023-04-03T14:31:45;8.90;46.00
10123;DHT22;5101;49.038;8.710;2023-04-03T14:34:12;8.80;44.70
10123;DHT22;5101;49.038;8.710;2023-04-03T14:36:39;8.80;44.60
10123;DHT22;5101;49.038;8.710;2023-04-03T14:39:07;8.80;44.10
10123;DHT22;5101;49.038;8.710;2023-04-03T14:41:34;8.80;43.50
10123;DHT22;5101;49.038;8.710;2023-04-03T14:43:59;8.90;43.70
10123;DHT22;5101;49.038;8.710;2023-04-03T14:46:35;9.00;44.30
10123;DHT22;5101;49.038;8.710;2023-04-03T14:49:02;9.00;44.30
10123;DHT22;5101;49.038;8.710;2023-04-03T14:51:27;8.90;44.50
10123;DHT22;5101;49.038;8.710;2023-04-03T14:53:53;9.00;44.50
10123;DHT22;5101;49.038;8.710;2023-04-03T14:56:19;8.90;43.70
10123;DHT22;5101;49.038;8.710;2023-04-03T14:58:48;8.80;42.90
10123;DHT22;5101;49.038;8.710;2023-04-03T15:01:16;8.80;42.70
10123;DHT22;5101;49.038;8.710;2023-04-03T15:03:42;8.70;41.90
10123;DHT22;5101;49.038;8.710;2023-04-03T15:06:10;8.70;41.90
10123;DHT22;5101;49.038;8.710;2023-04-03T15:08:37;8.80;42.30
10123;DHT22;5101;49.038;8.710;2023-04-03T15:11:02;9.00;42.60
10123;DHT22;5101;49.038;8.710;2023-04-03T15:13:28;9.10;42.90
10123;DHT22;5101;49.038;8.710;2023-04-03T15:15:53;9.10;42.70
10123;DHT22;5101;49.038;8.710;2023-04-03T15:18:24;9.10;42.20
10123;DHT22;5101;49.038;8.710;2023-04-03T15:20:53;9.10;41.70
10123;DHT22;5101;49.038;8.710;2023-04-03T15:23:20;9.10;41.80
10123;DHT22;5101;49.038;8.710;2023-04-03T15:25:47;9.00;41.60
10123;DHT22;5101;49.038;8.710;2023-04-03T15:28:19;9.00;41.70
10123;DHT22;5101;49.038;8.710;2023-04-03T15:30:47;9.00;40.70
10123;DHT22;5101;49.038;8.710;2023-04-03T15:33:12;9.10;41.10
10123;DHT22;5101;49.038;8.710;2023-04-03T15:35:38;9.20;41.60
10123;DHT22;5101;49.038;8.710;2023-04-03T15:38:03;9.30;41.40
10123;DHT22;5101;49.038;8.710;2023-04-03T15:40:29;9.30;41.20
10123;DHT22;5101;49.038;8.710;2023-04-03T15:42:55;9.20;40.20
10123;DHT22;5101;49.038;8.710;2023-04-03T15:45:20;9.00;39.60
10123;DHT22;5101;49.038;8.710;2023-04-03T15:47:47;9.00;40.00
10123;DHT22;5101;49.038;8.710;2023-04-03T15:50:12;9.10;40.40
10123;DHT22;5101;49.038;8.710;2023-04-03T15:52:38;9.00;40.80
10123;DHT22;5101;49.038;8.710;2023-04-03T15:55:04;9.00;40.70
10123;DHT22;5101;49.038;8.710;2023-04-03T15:57:30;9.00;40.70
10123;DHT22;5101;49.038;8.710;2023-04-03T15:59:55;9.00;40.80
10123;DHT22;5101;49.038;8.710;2023-04-03T16:02:21;9.00;40.20
10123;DHT22;5101;49.038;8.710;2023-04-03T16:04:47;9.00;39.60
10123;DHT22;5101;49.038;8.710;2023-04-03T16:07:13;9.00;39.40
10123;DHT22;5101;49.038;8.710;2023-04-03T16:09:38;8.90;39.30
10123;DHT22;5101;49.038;8.710;2023-04-03T16:12:04;8.80;39.40
10123;DHT22;5101;49.038;8.710;2023-04-03T16:14:30;8.70;39.40
10123;DHT22;5101;49.038;8.710;2023-04-03T16:16:56;8.70;39.80
10123;DHT22;5101;49.038;8.710;2023-04-03T16:19:23;8.70;40.10
10123;DHT22;5101;49.038;8.710;2023-04-03T16:21:48;8.60;39.80
10123;DHT22;5101;49.038;8.710;2023-04-03T16:24:14;8.80;40.20
10123;DHT22;5101;49.038;8.710;2023-04-03T16:26:40;8.60;39.80
10123;DHT22;5101;49.038;8.710;2023-04-03T16:29:05;8.60;39.80
10123;DHT22;5101;49.038;8.710;2023-04-03T16:31:32;8.50;39.30
10123;DHT22;5101;49.038;8.710;2023-04-03T16:33:58;8.50;39.80
10123;DHT22;5101;49.038;8.710;2023-04-03T16:36:25;8.50;40.00
10123;DHT22;5101;49.038;8.710;2023-04-03T16:38:51;8.50;39.90
10123;DHT22;5101;49.038;8.710;2023-04-03T16:41:17;8.40;40.10
10123;DHT22;5101;49.038;8.710;2023-04-03T16:43:42;8.40;40.20
10123;DHT22;5101;49.038;8.710;2023-04-03T16:46:08;8.70;40.80
10123;DHT22;5101;49.038;8.710;2023-04-03T16:48:33;8.50;41.00
10123;DHT22;5101;49.038;8.710;2023-04-03T16:50:59;8.60;41.70
10123;DHT22;5101;49.038;8.710;2023-04-03T16:53:25;8.70;41.60
10123;DHT22;5101;49.038;8.710;2023-04-03T16:55:52;8.60;40.70
10123;DHT22;5101;49.038;8.710;2023-04-03T16:58:18;8.60;40.60
10123;DHT22;5101;49.038;8.710;2023-04-03T17:00:43;8.50;39.90
10123;DHT22;5101;49.038;8.710;2023-04-03T17:03:09;8.40;40.30
10123;DHT22;5101;49.038;8.710;2023-04-03T17:05:35;8.40;40.70
10123;DHT22;5101;49.038;8.710;2023-04-03T17:08:00;8.30;40.80
10123;DHT22;5101;49.038;8.710;2023-04-03T17:10:27;8.30;40.90
10123;DHT22;5101;49.038;8.710;2023-04-03T17:12:53;8.20;41.00
10123;DHT22;5101;49.038;8.710;2023-04-03T17:15:19;8.30;41.20
10123;DHT22;5101;49.038;8.710;2023-04-03T17:17:45;8.20;41.00
10123;DHT22;5101;49.038;8.710;2023-04-03T17:20:11;8.10;41.00
10123;DHT22;5101;49.038;8.710;2023-04-03T17:22:37;8.10;40.90
10123;DHT22;5101;49.038;8.710;2023-04-03T17:25:03;8.00;41.00